sensor_id;sensor_type;location;lat;lon;timestamp;P1;durP1;ratioP1;P2;durP2;ratioP2
58294;SDS011;45705;55.592;37.460;2024-03-07T00:02:15;20.35;;;8.50;;
58294;SDS011;45705;55.592;37.460;2024-03-07T00:04:43;21.38;;;8.15;;
58294;SDS011;45705;55.592;37.460;2024-03-07T00:07:09;18.15;;;7.55;;
58294;SDS011;45705;55.592;37.460;2024-03-07T00:09:35;17.65;;;6.00;;
58294;SDS011;45705;55.592;37.460;2024-03-07T00:12:01;23.88;;;6.72;;
58294;SDS011;45705;55.592;37.460;2024-03-07T00:14:28;17.92;;;6.65;;
58294;SDS011;45705;55.592;37.460;2024-03-07T00:16:54;13.57;;;5.55;;
58294;SDS011;45705;55.592;37.460;2024-03-07T00:19:21;20.10;;;5.25;;
58294;SDS011;45705;55.592;37.460;2024-03-07T00:21:47;15.32;;;4.80;;
58294;SDS011;45705;55.592;37.460;2024-03-07T00:24:13;16.55;;;5.13;;
58294;SDS011;45705;55.592;37.460;2024-03-07T00:26:41;18.48;;;4.75;;
58294;SDS011;45705;55.592;37.460;2024-03-07T00:29:07;16.20;;;5.13;;
58294;SDS011;45705;55.592;37.460;2024-03-07T00:31:33;19.83;;;5.93;;
58294;SDS011;45705;55.592;37.460;2024-03-07T00:33:59;12.25;;;4.80;;
58294;SDS011;45705;55.592;37.460;2024-03-07T00:36:25;17.00;;;5.82;;
58294;SDS011;45705;55.592;37.460;2024-03-07T00:38:54;13.32;;;5.50;;
58294;SDS011;45705;55.592;37.460;2024-03-07T00:41:20;17.45;;;5.25;;
58294;SDS011;45705;55.592;37.460;2024-03-07T00:43:45;11.82;;;5.15;;
58294;SDS011;45705;55.592;37.460;2024-03-07T00:46:12;20.42;;;6.88;;
58294;SDS011;45705;55.592;37.460;2024-03-07T00:48:38;12.18;;;5.88;;
58294;SDS011;45705;55.592;37.460;2024-03-07T00:51:04;20.60;;;6.32;;
58294;SDS011;45705;55.592;37.460;2024-03-07T00:53:30;17.27;;;6.70;;
58294;SDS011;45705;55.592;37.460;2024-03-07T00:55:56;23.80;;;9.13;;
58294;SDS011;45705;55.592;37.460;2024-03-07T00:58:22;20.52;;;7.70;;
58294;SDS011;45705;55.592;37.460;2024-03-07T01:00:48;16.60;;;7.32;;
58294;SDS011;45705;55.592;37.460;2024-03-07T01:03:15;20.85;;;7.72;;
58294;SDS011;45705;55.592;37.460;2024-03-07T01:05:43;21.95;;;8.25;;
58294;SDS011;45705;55.592;37.460;2024-03-07T01:08:09;24.52;;;9.05;;
58294;SDS011;45705;55.592;37.460;2024-03-07T01:10:35;27.92;;;9.65;;
58294;SDS011;45705;55.592;37.460;2024-03-07T01:13:01;26.45;;;9.18;;
58294;SDS011;45705;55.592;37.460;2024-03-07T01:15:28;19.40;;;8.13;;
58294;SDS011;45705;55.592;37.460;2024-03-07T01:17:53;26.23;;;8.90;;
58294;SDS011;45705;55.592;37.460;2024-03-07T01:20:20;22.58;;;9.52;;
58294;SDS011;45705;55.592;37.460;2024-03-07T01:22:47;23.95;;;10.30;;
58294;SDS011;45705;55.592;37.460;2024-03-07T01:25:12;25.35;;;9.38;;
58294;SDS011;45705;55.592;37.460;2024-03-07T01:27:38;28.42;;;9.10;;
58294;SDS011;45705;55.592;37.460;2024-03-07T01:30:04;28.83;;;9.02;;
58294;SDS011;45705;55.592;37.460;2024-03-07T01:34:59;20.40;;;8.48;;
58294;SDS011;45705;55.592;37.460;2024-03-07T01:37:26;29.17;;;8.88;;
58294;SDS011;45705;55.592;37.460;2024-03-07T01:39:52;27.05;;;9.35;;
58294;SDS011;45705;55.592;37.460;2024-03-07T01:42:18;28.90;;;9.23;;
58294;SDS011;45705;55.592;37.460;2024-03-07T01:44:43;24.08;;;8.52;;
58294;SDS011;45705;55.592;37.460;2024-03-07T01:47:10;20.88;;;8.52;;
58294;SDS011;45705;55.592;37.460;2024-03-07T01:49:36;24.45;;;8.95;;
58294;SDS011;45705;55.592;37.460;2024-03-07T01:52:04;24.08;;;10.38;;
58294;SDS011;45705;55.592;37.460;2024-03-07T01:54:33;22.05;;;8.73;;
58294;SDS011;45705;55.592;37.460;2024-03-07T01:57:01;22.27;;;9.25;;
58294;SDS011;45705;55.592;37.460;2024-03-07T01:59:27;29.80;;;9.57;;
58294;SDS011;45705;55.592;37.460;2024-03-07T02:01:58;23.77;;;8.80;;
58294;SDS011;45705;55.592;37.460;2024-03-07T02:04:27;28.52;;;10.43;;
58294;SDS011;45705;55.592;37.460;2024-03-07T02:06:53;21.88;;;9.85;;
58294;SDS011;45705;55.592;37.460;2024-03-07T02:09:20;27.27;;;8.75;;
58294;SDS011;45705;55.592;37.460;2024-03-07T02:11:49;19.55;;;8.65;;
58294;SDS011;45705;55.592;37.460;2024-03-07T02:14:15;16.67;;;7.57;;
58294;SDS011;45705;55.592;37.460;2024-03-07T02:16:42;22.17;;;8.27;;
58294;SDS011;45705;55.592;37.460;2024-03-07T02:19:28;15.93;;;6.32;;
58294;SDS011;45705;55.592;37.460;2024-03-07T02:21:53;19.30;;;6.63;;
58294;SDS011;45705;55.592;37.460;2024-03-07T02:24:19;15.80;;;6.35;;
58294;SDS011;45705;55.592;37.460;2024-03-07T02:26:45;15.32;;;6.95;;
58294;SDS011;45705;55.592;37.460;2024-03-07T02:29:11;26.33;;;7.43;;
58294;SDS011;45705;55.592;37.460;2024-03-07T02:31:37;15.02;;;6.78;;
58294;SDS011;45705;55.592;37.460;2024-03-07T02:34:04;14.95;;;6.53;;
58294;SDS011;45705;55.592;37.460;2024-03-07T02:36:33;17.23;;;6.90;;
58294;SDS011;45705;55.592;37.460;2024-03-07T02:38:59;16.10;;;7.65;;
58294;SDS011;45705;55.592;37.460;2024-03-07T02:41:25;14.07;;;5.88;;
58294;SDS011;45705;55.592;37.460;2024-03-07T02:43:51;16.35;;;6.88;;
58294;SDS011;45705;55.592;37.460;2024-03-07T02:46:18;19.38;;;6.95;;
58294;SDS011;45705;55.592;37.460;2024-03-07T02:48:45;16.77;;;7.18;;
58294;SDS011;45705;55.592;37.460;2024-03-07T02:51:11;18.58;;;6.70;;
58294;SDS011;45705;55.592;37.460;2024-03-07T02:53:37;18.83;;;6.90;;
58294;SDS011;45705;55.592;37.460;2024-03-07T02:56:05;16.00;;;6.82;;
58294;SDS011;45705;55.592;37.460;2024-03-07T02:58:35;15.20;;;6.70;;
58294;SDS011;45705;55.592;37.460;2024-03-07T03:01:00;20.58;;;7.53;;
58294;SDS011;45705;55.592;37.460;2024-03-07T03:03:26;18.33;;;7.28;;
58294;SDS011;45705;55.592;37.460;2024-03-07T03:05:52;20.02;;;7.40;;
58294;SDS011;45705;55.592;37.460;2024-03-07T03:08:18;14.48;;;6.38;;
58294;SDS011;45705;55.592;37.460;2024-03-07T03:10:44;18.60;;;7.72;;
58294;SDS011;45705;55.592;37.460;2024-03-07T03:13:10;17.73;;;6.72;;
58294;SDS011;45705;55.592;37.460;2024-03-07T03:15:36;15.35;;;6.95;;
58294;SDS011;45705;55.592;37.460;2024-03-07T03:18:04;14.50;;;6.75;;
58294;SDS011;45705;55.592;37.460;2024-03-07T03:20:31;14.90;;;6.60;;
58294;SDS011;45705;55.592;37.460;2024-03-07T03:23:00;16.60;;;7.07;;
58294;SDS011;45705;55.592;37.460;2024-03-07T03:25:29;14.55;;;6.22;;
58294;SDS011;45705;55.592;37.460;2024-03-07T03:28:01;16.42;;;5.85;;
58294;SDS011;45705;55.592;37.460;2024-03-07T03:30:28;15.05;;;6.18;;
58294;SDS011;45705;55.592;37.460;2024-03-07T03:32:53;15.85;;;6.60;;
58294;SDS011;45705;55.592;37.460;2024-03-07T03:35:19;16.17;;;6.35;;
58294;SDS011;45705;55.592;37.460;2024-03-07T03:37:45;17.08;;;6.43;;
58294;SDS011;45705;55.592;37.460;2024-03-07T03:40:12;12.25;;;5.57;;
58294;SDS011;45705;55.592;37.460;2024-03-07T03:42:39;17.35;;;5.80;;
58294;SDS011;45705;55.592;37.460;2024-03-07T03:45:05;16.95;;;6.78;;
58294;SDS011;45705;55.592;37.460;2024-03-07T03:47:34;14.07;;;7.07;;
58294;SDS011;45705;55.592;37.460;2024-03-07T03:50:04;17.27;;;6.88;;
58294;SDS011;45705;55.592;37.460;2024-03-07T03:52:30;15.95;;;7.20;;
58294;SDS011;45705;55.592;37.460;2024-03-07T03:54:57;12.95;;;6.20;;
58294;SDS011;45705;55.592;37.460;2024-03-07T03:57:28;16.73;;;6.03;;
58294;SDS011;45705;55.592;37.460;2024-03-07T03:59:55;16.20;;;6.50;;
58294;SDS011;45705;55.592;37.460;2024-03-07T04:02:21;18.98;;;6.57;;
58294;SDS011;45705;55.592;37.460;2024-03-07T04:04:48;19.45;;;7.30;;
58294;SDS011;45705;55.592;37.460;2024-03-07T04:07:15;14.25;;;5.80;;
58294;SDS011;45705;55.592;37.460;2024-03-07T04:09:44;16.15;;;6.25;;
58294;SDS011;45705;55.592;37.460;2024-03-07T04:12:11;12.35;;;5.82;;
58294;SDS011;45705;55.592;37.460;2024-03-07T04:14:38;17.90;;;6.13;;
58294;SDS011;45705;55.592;37.460;2024-03-07T04:17:09;12.38;;;5.70;;
58294;SDS011;45705;55.592;37.460;2024-03-07T04:19:39;16.00;;;6.15;;
58294;SDS011;45705;55.592;37.460;2024-03-07T04:22:05;12.43;;;5.97;;
58294;SDS011;45705;55.592;37.460;2024-03-07T04:24:31;14.05;;;5.97;;
58294;SDS011;45705;55.592;37.460;2024-03-07T04:27:00;16.20;;;6.00;;
58294;SDS011;45705;55.592;37.460;2024-03-07T04:29:32;12.88;;;5.82;;
58294;SDS011;45705;55.592;37.460;2024-03-07T04:31:59;16.95;;;6.15;;
58294;SDS011;45705;55.592;37.460;2024-03-07T04:34:29;19.92;;;6.35;;
58294;SDS011;45705;55.592;37.460;2024-03-07T04:37:00;12.45;;;5.28;;
58294;SDS011;45705;55.592;37.460;2024-03-07T04:39:32;12.60;;;5.00;;
58294;SDS011;45705;55.592;37.460;2024-03-07T04:44:28;15.93;;;5.03;;
58294;SDS011;45705;55.592;37.460;2024-03-07T04:46:55;19.25;;;5.47;;
58294;SDS011;45705;55.592;37.460;2024-03-07T04:49:22;12.00;;;5.32;;
58294;SDS011;45705;55.592;37.460;2024-03-07T04:51:52;19.92;;;6.32;;
58294;SDS011;45705;55.592;37.460;2024-03-07T04:54:19;18.95;;;5.85;;
58294;SDS011;45705;55.592;37.460;2024-03-07T04:56:46;24.00;;;6.10;;
58294;SDS011;45705;55.592;37.460;2024-03-07T04:59:14;14.32;;;6.03;;
58294;SDS011;45705;55.592;37.460;2024-03-07T05:01:40;13.63;;;5.35;;
58294;SDS011;45705;55.592;37.460;2024-03-07T05:04:06;26.33;;;8.68;;
58294;SDS011;45705;55.592;37.460;2024-03-07T05:06:33;18.13;;;7.82;;
58294;SDS011;45705;55.592;37.460;2024-03-07T05:08:59;21.48;;;6.85;;
58294;SDS011;45705;55.592;37.460;2024-03-07T05:11:27;13.10;;;5.82;;
58294;SDS011;45705;55.592;37.460;2024-03-07T05:13:54;19.77;;;6.97;;
58294;SDS011;45705;55.592;37.460;2024-03-07T05:16:20;18.55;;;5.90;;
58294;SDS011;45705;55.592;37.460;2024-03-07T05:18:46;13.48;;;4.70;;
58294;SDS011;45705;55.592;37.460;2024-03-07T05:21:12;11.77;;;5.40;;
58294;SDS011;45705;55.592;37.460;2024-03-07T05:23:57;9.45;;;4.93;;
58294;SDS011;45705;55.592;37.460;2024-03-07T05:26:23;9.30;;;4.40;;
58294;SDS011;45705;55.592;37.460;2024-03-07T05:28:50;16.40;;;4.78;;
58294;SDS011;45705;55.592;37.460;2024-03-07T05:31:17;11.57;;;4.72;;
58294;SDS011;45705;55.592;37.460;2024-03-07T05:33:45;11.25;;;4.30;;
58294;SDS011;45705;55.592;37.460;2024-03-07T05:36:11;11.48;;;5.13;;
58294;SDS011;45705;55.592;37.460;2024-03-07T05:38:43;11.48;;;4.93;;
58294;SDS011;45705;55.592;37.460;2024-03-07T05:43:36;8.27;;;4.85;;
58294;SDS011;45705;55.592;37.460;2024-03-07T05:46:02;8.45;;;4.75;;
58294;SDS011;45705;55.592;37.460;2024-03-07T05:48:30;11.98;;;5.82;;
58294;SDS011;45705;55.592;37.460;2024-03-07T05:50:57;9.45;;;5.03;;
58294;SDS011;45705;55.592;37.460;2024-03-07T05:53:24;11.50;;;5.22;;
58294;SDS011;45705;55.592;37.460;2024-03-07T05:55:50;10.90;;;5.47;;
58294;SDS011;45705;55.592;37.460;2024-03-07T05:58:16;12.45;;;5.88;;
58294;SDS011;45705;55.592;37.460;2024-03-07T06:00:45;15.80;;;5.93;;
58294;SDS011;45705;55.592;37.460;2024-03-07T06:03:16;13.05;;;6.03;;
58294;SDS011;45705;55.592;37.460;2024-03-07T06:05:43;9.02;;;5.30;;
58294;SDS011;45705;55.592;37.460;2024-03-07T06:08:14;10.48;;;5.85;;
58294;SDS011;45705;55.592;37.460;2024-03-07T06:10:44;12.27;;;6.13;;
58294;SDS011;45705;55.592;37.460;2024-03-07T06:13:13;10.85;;;5.93;;
58294;SDS011;45705;55.592;37.460;2024-03-07T06:15:44;10.73;;;6.00;;
58294;SDS011;45705;55.592;37.460;2024-03-07T06:18:12;10.43;;;5.55;;
58294;SDS011;45705;55.592;37.460;2024-03-07T06:20:43;10.63;;;5.60;;
58294;SDS011;45705;55.592;37.460;2024-03-07T06:23:09;11.70;;;6.20;;
58294;SDS011;45705;55.592;37.460;2024-03-07T06:25:37;9.45;;;5.88;;
58294;SDS011;45705;55.592;37.460;2024-03-07T06:28:13;13.68;;;5.88;;
58294;SDS011;45705;55.592;37.460;2024-03-07T06:30:40;10.95;;;5.78;;
58294;SDS011;45705;55.592;37.460;2024-03-07T06:33:10;10.23;;;5.78;;
58294;SDS011;45705;55.592;37.460;2024-03-07T06:35:37;16.08;;;5.88;;
58294;SDS011;45705;55.592;37.460;2024-03-07T06:38:04;14.55;;;6.75;;
58294;SDS011;45705;55.592;37.460;2024-03-07T06:40:34;22.02;;;6.60;;
58294;SDS011;45705;55.592;37.460;2024-03-07T06:43:00;12.32;;;6.35;;
58294;SDS011;45705;55.592;37.460;2024-03-07T06:45:29;11.88;;;6.72;;
58294;SDS011;45705;55.592;37.460;2024-03-07T06:47:56;14.30;;;6.13;;
58294;SDS011;45705;55.592;37.460;2024-03-07T06:50:22;14.57;;;6.18;;
58294;SDS011;45705;55.592;37.460;2024-03-07T06:52:48;15.00;;;6.85;;
58294;SDS011;45705;55.592;37.460;2024-03-07T06:55:18;17.50;;;7.47;;
58294;SDS011;45705;55.592;37.460;2024-03-07T06:57:44;12.38;;;5.78;;
58294;SDS011;45705;55.592;37.460;2024-03-07T07:00:11;16.38;;;7.30;;
58294;SDS011;45705;55.592;37.460;2024-03-07T07:02:38;17.65;;;8.57;;
58294;SDS011;45705;55.592;37.460;2024-03-07T07:05:07;17.00;;;10.02;;
58294;SDS011;45705;55.592;37.460;2024-03-07T07:07:39;8.73;;;5.78;;
58294;SDS011;45705;55.592;37.460;2024-03-07T07:10:09;22.48;;;7.75;;
58294;SDS011;45705;55.592;37.460;2024-03-07T07:12:42;15.13;;;7.20;;
58294;SDS011;45705;55.592;37.460;2024-03-07T07:15:10;17.67;;;5.65;;
58294;SDS011;45705;55.592;37.460;2024-03-07T07:17:38;43.17;;;18.20;;
58294;SDS011;45705;55.592;37.460;2024-03-07T07:20:04;14.80;;;6.40;;
58294;SDS011;45705;55.592;37.460;2024-03-07T07:22:41;14.65;;;6.53;;
58294;SDS011;45705;55.592;37.460;2024-03-07T07:25:07;17.80;;;6.32;;
58294;SDS011;45705;55.592;37.460;2024-03-07T07:27:40;12.90;;;7.15;;
58294;SDS011;45705;55.592;37.460;2024-03-07T07:30:09;9.80;;;5.68;;
58294;SDS011;45705;55.592;37.460;2024-03-07T07:32:39;14.05;;;6.53;;
58294;SDS011;45705;55.592;37.460;2024-03-07T07:35:05;22.42;;;6.97;;
58294;SDS011;45705;55.592;37.460;2024-03-07T07:37:38;13.60;;;6.85;;
58294;SDS011;45705;55.592;37.460;2024-03-07T07:40:08;18.73;;;6.95;;
58294;SDS011;45705;55.592;37.460;2024-03-07T07:45:14;14.20;;;6.00;;
58294;SDS011;45705;55.592;37.460;2024-03-07T07:47:45;12.32;;;6.97;;
58294;SDS011;45705;55.592;37.460;2024-03-07T07:50:15;16.08;;;6.63;;
58294;SDS011;45705;55.592;37.460;2024-03-07T07:52:49;12.48;;;5.90;;
58294;SDS011;45705;55.592;37.460;2024-03-07T07:55:16;14.70;;;5.80;;
58294;SDS011;45705;55.592;37.460;2024-03-07T07:57:44;13.93;;;5.47;;
58294;SDS011;45705;55.592;37.460;2024-03-07T08:00:12;9.10;;;5.45;;
58294;SDS011;45705;55.592;37.460;2024-03-07T08:02:50;10.27;;;5.38;;
58294;SDS011;45705;55.592;37.460;2024-03-07T08:05:17;13.43;;;5.30;;
58294;SDS011;45705;55.592;37.460;2024-03-07T08:07:45;12.10;;;5.05;;
58294;SDS011;45705;55.592;37.460;2024-03-07T08:10:14;12.40;;;5.13;;
58294;SDS011;45705;55.592;37.460;2024-03-07T08:12:41;13.27;;;4.55;;
58294;SDS011;45705;55.592;37.460;2024-03-07T08:15:12;8.27;;;4.57;;
58294;SDS011;45705;55.592;37.460;2024-03-07T08:17:44;9.18;;;4.60;;
58294;SDS011;45705;55.592;37.460;2024-03-07T08:20:12;13.13;;;4.10;;
58294;SDS011;45705;55.592;37.460;2024-03-07T08:22:40;6.28;;;3.92;;
58294;SDS011;45705;55.592;37.460;2024-03-07T08:25:13;11.02;;;3.80;;
58294;SDS011;45705;55.592;37.460;2024-03-07T08:27:41;8.65;;;4.53;;
58294;SDS011;45705;55.592;37.460;2024-03-07T08:30:08;11.27;;;3.63;;
58294;SDS011;45705;55.592;37.460;2024-03-07T08:32:39;19.70;;;3.80;;
58294;SDS011;45705;55.592;37.460;2024-03-07T08:35:06;7.47;;;3.63;;
58294;SDS011;45705;55.592;37.460;2024-03-07T08:37:35;13.05;;;3.58;;
58294;SDS011;45705;55.592;37.460;2024-03-07T08:40:02;7.15;;;3.45;;
58294;SDS011;45705;55.592;37.460;2024-03-07T08:42:46;6.25;;;3.20;;
58294;SDS011;45705;55.592;37.460;2024-03-07T08:45:13;8.20;;;3.47;;
58294;SDS011;45705;55.592;37.460;2024-03-07T08:47:49;7.90;;;2.95;;
58294;SDS011;45705;55.592;37.460;2024-03-07T08:50:16;13.10;;;3.72;;
58294;SDS011;45705;55.592;37.460;2024-03-07T08:52:44;10.35;;;3.88;;
58294;SDS011;45705;55.592;37.460;2024-03-07T08:55:12;6.78;;;2.88;;
58294;SDS011;45705;55.592;37.460;2024-03-07T08:57:40;8.15;;;2.85;;
58294;SDS011;45705;55.592;37.460;2024-03-07T09:00:07;13.38;;;3.30;;
58294;SDS011;45705;55.592;37.460;2024-03-07T09:02:35;10.30;;;2.80;;
58294;SDS011;45705;55.592;37.460;2024-03-07T09:05:01;12.55;;;3.67;;
58294;SDS011;45705;55.592;37.460;2024-03-07T09:07:30;6.25;;;3.33;;
58294;SDS011;45705;55.592;37.460;2024-03-07T09:09:56;4.85;;;2.60;;
58294;SDS011;45705;55.592;37.460;2024-03-07T09:12:22;8.73;;;2.47;;
58294;SDS011;45705;55.592;37.460;2024-03-07T09:14:50;4.70;;;2.35;;
58294;SDS011;45705;55.592;37.460;2024-03-07T09:17:17;11.70;;;2.65;;
58294;SDS011;45705;55.592;37.460;2024-03-07T09:19:43;5.18;;;2.05;;
58294;SDS011;45705;55.592;37.460;2024-03-07T09:22:10;4.18;;;2.08;;
58294;SDS011;45705;55.592;37.460;2024-03-07T09:24:36;4.55;;;1.95;;
58294;SDS011;45705;55.592;37.460;2024-03-07T09:27:03;10.57;;;2.20;;
58294;SDS011;45705;55.592;37.460;2024-03-07T09:29:29;4.13;;;1.92;;
58294;SDS011;45705;55.592;37.460;2024-03-07T09:31:56;4.18;;;2.38;;
58294;SDS011;45705;55.592;37.460;2024-03-07T09:34:23;6.25;;;2.33;;
58294;SDS011;45705;55.592;37.460;2024-03-07T09:36:50;5.15;;;2.22;;
58294;SDS011;45705;55.592;37.460;2024-03-07T09:39:17;9.80;;;2.65;;
58294;SDS011;45705;55.592;37.460;2024-03-07T09:41:46;3.60;;;1.95;;
58294;SDS011;45705;55.592;37.460;2024-03-07T09:44:15;7.72;;;2.15;;
58294;SDS011;45705;55.592;37.460;2024-03-07T09:46:48;3.92;;;1.88;;
58294;SDS011;45705;55.592;37.460;2024-03-07T09:49:16;4.38;;;2.20;;
58294;SDS011;45705;55.592;37.460;2024-03-07T09:51:43;3.47;;;2.15;;
58294;SDS011;45705;55.592;37.460;2024-03-07T09:54:11;3.95;;;1.80;;
58294;SDS011;45705;55.592;37.460;2024-03-07T09:56:39;4.53;;;2.50;;
58294;SDS011;45705;55.592;37.460;2024-03-07T09:59:06;4.85;;;2.47;;
58294;SDS011;45705;55.592;37.460;2024-03-07T10:01:36;5.13;;;2.35;;
58294;SDS011;45705;55.592;37.460;2024-03-07T10:04:05;6.45;;;2.00;;
58294;SDS011;45705;55.592;37.460;2024-03-07T10:06:37;2.42;;;1.80;;
58294;SDS011;45705;55.592;37.460;2024-03-07T10:09:05;7.03;;;2.15;;
58294;SDS011;45705;55.592;37.460;2024-03-07T10:11:35;7.10;;;2.47;;
58294;SDS011;45705;55.592;37.460;2024-03-07T10:14:01;6.32;;;2.22;;
58294;SDS011;45705;55.592;37.460;2024-03-07T10:16:28;6.10;;;2.53;;
58294;SDS011;45705;55.592;37.460;2024-03-07T10:18:54;7.72;;;2.63;;
58294;SDS011;45705;55.592;37.460;2024-03-07T10:21:20;6.28;;;2.40;;
58294;SDS011;45705;55.592;37.460;2024-03-07T10:23:46;7.68;;;2.25;;
58294;SDS011;45705;55.592;37.460;2024-03-07T10:26:12;21.15;;;2.42;;
58294;SDS011;45705;55.592;37.460;2024-03-07T10:28:38;4.43;;;2.28;;
58294;SDS011;45705;55.592;37.460;2024-03-07T10:31:04;3.53;;;2.03;;
58294;SDS011;45705;55.592;37.460;2024-03-07T10:33:37;6.40;;;2.30;;
58294;SDS011;45705;55.592;37.460;2024-03-07T10:36:05;12.57;;;2.47;;
58294;SDS011;45705;55.592;37.460;2024-03-07T10:38:38;2.70;;;1.73;;
58294;SDS011;45705;55.592;37.460;2024-03-07T10:41:05;3.55;;;2.20;;
58294;SDS011;45705;55.592;37.460;2024-03-07T11:01:00;7.13;;;3.60;;
58294;SDS011;45705;55.592;37.460;2024-03-07T11:03:29;10.82;;;5.72;;
58294;SDS011;45705;55.592;37.460;2024-03-07T11:08:24;14.05;;;4.25;;
58294;SDS011;45705;55.592;37.460;2024-03-07T11:10:51;11.40;;;5.65;;
58294;SDS011;45705;55.592;37.460;2024-03-07T11:13:17;10.65;;;5.10;;
58294;SDS011;45705;55.592;37.460;2024-03-07T11:15:45;6.00;;;3.90;;
58294;SDS011;45705;55.592;37.460;2024-03-07T11:18:13;7.82;;;3.05;;
58294;SDS011;45705;55.592;37.460;2024-03-07T11:20:39;10.95;;;3.40;;
58294;SDS011;45705;55.592;37.460;2024-03-07T11:23:24;4.63;;;2.58;;
58294;SDS011;45705;55.592;37.460;2024-03-07T11:26:05;3.22;;;2.30;;
58294;SDS011;45705;55.592;37.460;2024-03-07T11:28:39;3.53;;;2.20;;
58294;SDS011;45705;55.592;37.460;2024-03-07T11:36:47;6.68;;;4.45;;
58294;SDS011;45705;55.592;37.460;2024-03-07T11:39:38;6.97;;;3.38;;
58294;SDS011;45705;55.592;37.460;2024-03-07T11:42:08;7.35;;;3.40;;
58294;SDS011;45705;55.592;37.460;2024-03-07T11:44:34;8.23;;;4.15;;
58294;SDS011;45705;55.592;37.460;2024-03-07T11:47:03;8.20;;;3.08;;
58294;SDS011;45705;55.592;37.460;2024-03-07T11:49:35;10.70;;;3.95;;
58294;SDS011;45705;55.592;37.460;2024-03-07T11:52:03;12.13;;;3.95;;
58294;SDS011;45705;55.592;37.460;2024-03-07T11:54:39;6.63;;;3.22;;
58294;SDS011;45705;55.592;37.460;2024-03-07T11:57:12;5.40;;;3.60;;
58294;SDS011;45705;55.592;37.460;2024-03-07T11:59:42;7.78;;;3.60;;
58294;SDS011;45705;55.592;37.460;2024-03-07T12:02:12;6.35;;;3.85;;
58294;SDS011;45705;55.592;37.460;2024-03-07T12:04:41;7.03;;;3.85;;
58294;SDS011;45705;55.592;37.460;2024-03-07T12:07:07;14.80;;;4.40;;
58294;SDS011;45705;55.592;37.460;2024-03-07T12:09:36;5.72;;;3.55;;
58294;SDS011;45705;55.592;37.460;2024-03-07T12:12:04;6.47;;;3.25;;
58294;SDS011;45705;55.592;37.460;2024-03-07T12:14:30;6.55;;;3.28;;
58294;SDS011;45705;55.592;37.460;2024-03-07T12:16:57;7.10;;;3.10;;
58294;SDS011;45705;55.592;37.460;2024-03-07T12:19:23;5.75;;;2.50;;
58294;SDS011;45705;55.592;37.460;2024-03-07T12:21:49;8.55;;;3.25;;
58294;SDS011;45705;55.592;37.460;2024-03-07T12:24:15;4.70;;;2.92;;
58294;SDS011;45705;55.592;37.460;2024-03-07T12:26:41;5.43;;;3.03;;
58294;SDS011;45705;55.592;37.460;2024-03-07T12:29:11;6.40;;;2.97;;
58294;SDS011;45705;55.592;37.460;2024-03-07T12:31:38;7.07;;;2.90;;
58294;SDS011;45705;55.592;37.460;2024-03-07T12:34:05;8.30;;;3.72;;
58294;SDS011;45705;55.592;37.460;2024-03-07T12:36:31;6.25;;;3.30;;
58294;SDS011;45705;55.592;37.460;2024-03-07T12:41:34;4.97;;;2.70;;
58294;SDS011;45705;55.592;37.460;2024-03-07T12:44:00;5.78;;;2.90;;
58294;SDS011;45705;55.592;37.460;2024-03-07T12:46:27;8.98;;;3.08;;
58294;SDS011;45705;55.592;37.460;2024-03-07T12:48:54;7.95;;;3.33;;
58294;SDS011;45705;55.592;37.460;2024-03-07T12:51:23;6.82;;;3.13;;
58294;SDS011;45705;55.592;37.460;2024-03-07T12:53:52;5.60;;;3.00;;
58294;SDS011;45705;55.592;37.460;2024-03-07T12:56:18;6.32;;;2.92;;
58294;SDS011;45705;55.592;37.460;2024-03-07T12:58:44;8.20;;;3.38;;
58294;SDS011;45705;55.592;37.460;2024-03-07T13:01:10;12.27;;;3.65;;
58294;SDS011;45705;55.592;37.460;2024-03-07T13:03:36;8.60;;;3.33;;
58294;SDS011;45705;55.592;37.460;2024-03-07T13:06:02;6.97;;;3.10;;
58294;SDS011;45705;55.592;37.460;2024-03-07T13:08:30;8.48;;;3.88;;
58294;SDS011;45705;55.592;37.460;2024-03-07T13:10:56;6.93;;;3.55;;
58294;SDS011;45705;55.592;37.460;2024-03-07T13:13:24;7.32;;;3.22;;
58294;SDS011;45705;55.592;37.460;2024-03-07T13:15:51;8.55;;;2.85;;
58294;SDS011;45705;55.592;37.460;2024-03-07T13:18:20;7.65;;;2.85;;
58294;SDS011;45705;55.592;37.460;2024-03-07T13:20:47;7.13;;;2.88;;
58294;SDS011;45705;55.592;37.460;2024-03-07T13:23:14;5.82;;;2.72;;
58294;SDS011;45705;55.592;37.460;2024-03-07T13:25:40;7.05;;;2.65;;
58294;SDS011;45705;55.592;37.460;2024-03-07T13:28:08;5.30;;;3.13;;
58294;SDS011;45705;55.592;37.460;2024-03-07T13:30:42;9.38;;;3.17;;
58294;SDS011;45705;55.592;37.460;2024-03-07T13:33:10;8.65;;;3.08;;
58294;SDS011;45705;55.592;37.460;2024-03-07T13:35:37;5.22;;;2.65;;
58294;SDS011;45705;55.592;37.460;2024-03-07T13:38:04;4.00;;;2.70;;
58294;SDS011;45705;55.592;37.460;2024-03-07T13:40:31;7.15;;;2.97;;
58294;SDS011;45705;55.592;37.460;2024-03-07T13:42:57;9.45;;;2.70;;
58294;SDS011;45705;55.592;37.460;2024-03-07T13:47:52;6.78;;;2.67;;
58294;SDS011;45705;55.592;37.460;2024-03-07T13:50:21;7.53;;;2.78;;
58294;SDS011;45705;55.592;37.460;2024-03-07T13:52:51;6.07;;;2.53;;
58294;SDS011;45705;55.592;37.460;2024-03-07T13:58:48;5.20;;;2.00;;
58294;SDS011;45705;55.592;37.460;2024-03-07T14:29:20;5.50;;;2.80;;
58294;SDS011;45705;55.592;37.460;2024-03-07T14:31:55;6.20;;;2.50;;
58294;SDS011;45705;55.592;37.460;2024-03-07T14:36:55;3.83;;;2.00;;
58294;SDS011;45705;55.592;37.460;2024-03-07T14:39:23;3.53;;;2.10;;
58294;SDS011;45705;55.592;37.460;2024-03-07T14:41:52;8.18;;;2.00;;
58294;SDS011;45705;55.592;37.460;2024-03-07T14:44:23;6.43;;;2.42;;
58294;SDS011;45705;55.592;37.460;2024-03-07T14:46:53;6.80;;;3.00;;
58294;SDS011;45705;55.592;37.460;2024-03-07T14:49:22;4.57;;;2.50;;
58294;SDS011;45705;55.592;37.460;2024-03-07T14:51:48;4.40;;;2.38;;
58294;SDS011;45705;55.592;37.460;2024-03-07T14:54:21;6.38;;;2.50;;
58294;SDS011;45705;55.592;37.460;2024-03-07T14:56:47;4.57;;;2.50;;
58294;SDS011;45705;55.592;37.460;2024-03-07T14:59:13;9.93;;;3.10;;
58294;SDS011;45705;55.592;37.460;2024-03-07T15:01:41;4.85;;;2.63;;
58294;SDS011;45705;55.592;37.460;2024-03-07T15:04:07;9.25;;;3.33;;
58294;SDS011;45705;55.592;37.460;2024-03-07T15:06:38;11.27;;;3.35;;
58294;SDS011;45705;55.592;37.460;2024-03-07T15:09:04;10.38;;;3.38;;
58294;SDS011;45705;55.592;37.460;2024-03-07T15:11:35;8.25;;;3.00;;
58294;SDS011;45705;55.592;37.460;2024-03-07T15:14:08;9.70;;;3.20;;
58294;SDS011;45705;55.592;37.460;2024-03-07T15:16:35;7.55;;;3.40;;
58294;SDS011;45705;55.592;37.460;2024-03-07T15:19:03;18.50;;;3.42;;
58294;SDS011;45705;55.592;37.460;2024-03-07T15:21:34;14.63;;;3.85;;
58294;SDS011;45705;55.592;37.460;2024-03-07T15:24:00;8.55;;;3.30;;
58294;SDS011;45705;55.592;37.460;2024-03-07T15:26:26;8.73;;;3.35;;
58294;SDS011;45705;55.592;37.460;2024-03-07T15:28:53;5.90;;;2.95;;
58294;SDS011;45705;55.592;37.460;2024-03-07T15:33:49;12.73;;;3.42;;
58294;SDS011;45705;55.592;37.460;2024-03-07T15:36:17;10.13;;;3.63;;
58294;SDS011;45705;55.592;37.460;2024-03-07T15:38:44;6.10;;;3.35;;
58294;SDS011;45705;55.592;37.460;2024-03-07T15:41:10;10.50;;;3.50;;
58294;SDS011;45705;55.592;37.460;2024-03-07T15:43:38;13.80;;;4.32;;
58294;SDS011;45705;55.592;37.460;2024-03-07T15:46:06;18.70;;;4.57;;
58294;SDS011;45705;55.592;37.460;2024-03-07T15:48:32;8.00;;;4.32;;